sensor_id;sensor_type;location;lat;lon;timestamp;P1;durP1;ratioP1;P2;durP2;ratioP2
81912;SDS011;71377;50.698;7.164;2024-01-15T00:02:25;14.93;;;7.68;;
81912;SDS011;71377;50.698;7.164;2024-01-15T00:04:51;14.65;;;7.35;;
81912;SDS011;71377;50.698;7.164;2024-01-15T00:07:18;14.27;;;7.35;;
81912;SDS011;71377;50.698;7.164;2024-01-15T00:09:44;15.32;;;7.32;;
81912;SDS011;71377;50.698;7.164;2024-01-15T00:12:11;17.17;;;9.02;;
81912;SDS011;71377;50.698;7.164;2024-01-15T00:14:38;16.08;;;8.05;;
81912;SDS011;71377;50.698;7.164;2024-01-15T00:17:04;16.20;;;7.45;;
81912;SDS011;71377;50.698;7.164;2024-01-15T00:19:30;13.52;;;7.50;;
81912;SDS011;71377;50.698;7.164;2024-01-15T00:21:58;13.85;;;7.13;;
81912;SDS011;71377;50.698;7.164;2024-01-15T00:24:25;14.73;;;7.18;;
81912;SDS011;71377;50.698;7.164;2024-01-15T00:26:51;12.63;;;7.35;;
81912;SDS011;71377;50.698;7.164;2024-01-15T00:29:19;14.73;;;7.70;;
81912;SDS011;71377;50.698;7.164;2024-01-15T00:31:45;18.08;;;8.30;;
81912;SDS011;71377;50.698;7.164;2024-01-15T00:34:12;13.95;;;6.82;;
81912;SDS011;71377;50.698;7.164;2024-01-15T00:36:38;14.75;;;7.70;;
81912;SDS011;71377;50.698;7.164;2024-01-15T00:39:05;15.65;;;7.72;;
81912;SDS011;71377;50.698;7.164;2024-01-15T00:41:31;15.55;;;7.65;;
81912;SDS011;71377;50.698;7.164;2024-01-15T00:43:58;17.05;;;8.88;;
81912;SDS011;71377;50.698;7.164;2024-01-15T00:46:24;15.55;;;7.47;;
81912;SDS011;71377;50.698;7.164;2024-01-15T00:48:51;14.70;;;7.60;;
81912;SDS011;71377;50.698;7.164;2024-01-15T00:51:17;17.98;;;8.40;;
81912;SDS011;71377;50.698;7.164;2024-01-15T00:53:44;16.70;;;8.02;;
81912;SDS011;71377;50.698;7.164;2024-01-15T00:56:10;16.70;;;7.43;;
81912;SDS011;71377;50.698;7.164;2024-01-15T00:58:36;16.15;;;8.60;;
81912;SDS011;71377;50.698;7.164;2024-01-15T01:01:03;16.73;;;8.00;;
81912;SDS011;71377;50.698;7.164;2024-01-15T01:03:29;14.32;;;8.35;;
81912;SDS011;71377;50.698;7.164;2024-01-15T01:05:56;16.02;;;8.75;;
81912;SDS011;71377;50.698;7.164;2024-01-15T01:08:23;16.48;;;8.73;;
81912;SDS011;71377;50.698;7.164;2024-01-15T01:10:49;17.17;;;9.27;;
81912;SDS011;71377;50.698;7.164;2024-01-15T01:13:15;19.08;;;8.75;;
81912;SDS011;71377;50.698;7.164;2024-01-15T01:15:42;15.93;;;8.65;;
81912;SDS011;71377;50.698;7.164;2024-01-15T01:18:08;19.98;;;9.23;;
81912;SDS011;71377;50.698;7.164;2024-01-15T01:20:35;16.08;;;8.13;;
81912;SDS011;71377;50.698;7.164;2024-01-15T01:23:01;19.00;;;8.52;;
81912;SDS011;71377;50.698;7.164;2024-01-15T01:25:29;15.40;;;8.02;;
81912;SDS011;71377;50.698;7.164;2024-01-15T01:27:55;16.48;;;8.35;;
81912;SDS011;71377;50.698;7.164;2024-01-15T01:30:22;18.00;;;9.57;;
81912;SDS011;71377;50.698;7.164;2024-01-15T01:32:48;16.30;;;8.57;;
81912;SDS011;71377;50.698;7.164;2024-01-15T01:35:15;14.30;;;7.43;;
81912;SDS011;71377;50.698;7.164;2024-01-15T01:37:41;16.20;;;8.32;;
81912;SDS011;71377;50.698;7.164;2024-01-15T01:40:07;21.55;;;8.07;;
81912;SDS011;71377;50.698;7.164;2024-01-15T01:42:34;16.70;;;9.45;;
81912;SDS011;71377;50.698;7.164;2024-01-15T01:45:01;17.98;;;8.93;;
81912;SDS011;71377;50.698;7.164;2024-01-15T01:47:27;19.70;;;10.20;;
81912;SDS011;71377;50.698;7.164;2024-01-15T01:49:54;18.40;;;8.93;;
81912;SDS011;71377;50.698;7.164;2024-01-15T01:52:20;16.45;;;9.23;;
81912;SDS011;71377;50.698;7.164;2024-01-15T01:54:47;17.35;;;9.32;;
81912;SDS011;71377;50.698;7.164;2024-01-15T01:57:14;19.70;;;9.10;;
81912;SDS011;71377;50.698;7.164;2024-01-15T01:59:42;16.85;;;8.52;;
81912;SDS011;71377;50.698;7.164;2024-01-15T02:02:08;19.50;;;9.48;;
81912;SDS011;71377;50.698;7.164;2024-01-15T02:04:35;19.98;;;9.27;;
81912;SDS011;71377;50.698;7.164;2024-01-15T02:07:03;16.90;;;8.73;;
81912;SDS011;71377;50.698;7.164;2024-01-15T02:09:30;18.58;;;8.70;;
81912;SDS011;71377;50.698;7.164;2024-01-15T02:11:58;18.23;;;8.38;;
81912;SDS011;71377;50.698;7.164;2024-01-15T02:14:25;19.17;;;9.57;;
81912;SDS011;71377;50.698;7.164;2024-01-15T02:16:51;17.73;;;9.27;;
81912;SDS011;71377;50.698;7.164;2024-01-15T02:19:17;16.30;;;8.20;;
81912;SDS011;71377;50.698;7.164;2024-01-15T02:21:44;16.17;;;8.75;;
81912;SDS011;71377;50.698;7.164;2024-01-15T02:24:11;15.90;;;9.32;;
81912;SDS011;71377;50.698;7.164;2024-01-15T02:26:38;16.23;;;8.95;;
81912;SDS011;71377;50.698;7.164;2024-01-15T02:29:06;16.50;;;8.82;;
81912;SDS011;71377;50.698;7.164;2024-01-15T02:31:35;18.17;;;9.55;;
81912;SDS011;71377;50.698;7.164;2024-01-15T02:34:02;15.95;;;8.88;;
81912;SDS011;71377;50.698;7.164;2024-01-15T02:36:29;18.55;;;9.40;;
81912;SDS011;71377;50.698;7.164;2024-01-15T02:38:55;17.30;;;9.55;;
81912;SDS011;71377;50.698;7.164;2024-01-15T02:41:22;17.55;;;9.50;;
81912;SDS011;71377;50.698;7.164;2024-01-15T02:43:48;19.30;;;9.63;;
81912;SDS011;71377;50.698;7.164;2024-01-15T02:46:15;22.00;;;9.98;;
81912;SDS011;71377;50.698;7.164;2024-01-15T02:48:42;19.50;;;9.50;;
81912;SDS011;71377;50.698;7.164;2024-01-15T02:51:08;19.52;;;9.73;;
81912;SDS011;71377;50.698;7.164;2024-01-15T02:53:36;19.58;;;9.07;;
81912;SDS011;71377;50.698;7.164;2024-01-15T02:56:02;17.75;;;9.45;;
81912;SDS011;71377;50.698;7.164;2024-01-15T02:58:29;15.80;;;8.60;;
81912;SDS011;71377;50.698;7.164;2024-01-15T03:00:55;16.98;;;10.18;;
81912;SDS011;71377;50.698;7.164;2024-01-15T03:03:22;22.35;;;9.88;;
81912;SDS011;71377;50.698;7.164;2024-01-15T03:05:48;18.73;;;11.27;;
81912;SDS011;71377;50.698;7.164;2024-01-15T03:08:15;20.15;;;10.38;;
81912;SDS011;71377;50.698;7.164;2024-01-15T03:10:41;18.73;;;10.65;;
81912;SDS011;71377;50.698;7.164;2024-01-15T03:13:08;22.00;;;11.20;;
81912;SDS011;71377;50.698;7.164;2024-01-15T03:15:34;17.98;;;10.50;;
81912;SDS011;71377;50.698;7.164;2024-01-15T03:18:01;18.45;;;10.32;;
81912;SDS011;71377;50.698;7.164;2024-01-15T03:20:27;18.02;;;10.40;;
81912;SDS011;71377;50.698;7.164;2024-01-15T03:22:54;18.55;;;10.02;;
81912;SDS011;71377;50.698;7.164;2024-01-15T03:25:20;19.48;;;10.82;;
81912;SDS011;71377;50.698;7.164;2024-01-15T03:27:47;14.52;;;7.95;;
81912;SDS011;71377;50.698;7.164;2024-01-15T03:30:13;20.30;;;10.85;;
81912;SDS011;71377;50.698;7.164;2024-01-15T03:32:40;13.57;;;8.13;;
81912;SDS011;71377;50.698;7.164;2024-01-15T03:35:06;14.88;;;9.35;;
81912;SDS011;71377;50.698;7.164;2024-01-15T03:37:33;18.27;;;10.32;;
81912;SDS011;71377;50.698;7.164;2024-01-15T03:40:00;17.67;;;9.38;;
81912;SDS011;71377;50.698;7.164;2024-01-15T03:42:26;15.43;;;8.35;;
81912;SDS011;71377;50.698;7.164;2024-01-15T03:44:53;14.45;;;9.35;;
81912;SDS011;71377;50.698;7.164;2024-01-15T03:47:19;17.48;;;9.77;;
81912;SDS011;71377;50.698;7.164;2024-01-15T03:49:45;17.13;;;9.18;;
81912;SDS011;71377;50.698;7.164;2024-01-15T03:52:12;17.45;;;10.07;;
81912;SDS011;71377;50.698;7.164;2024-01-15T03:54:38;22.42;;;9.35;;
81912;SDS011;71377;50.698;7.164;2024-01-15T03:57:05;16.95;;;9.85;;
81912;SDS011;71377;50.698;7.164;2024-01-15T03:59:31;14.43;;;9.55;;
81912;SDS011;71377;50.698;7.164;2024-01-15T04:01:58;16.15;;;9.40;;
81912;SDS011;71377;50.698;7.164;2024-01-15T04:04:24;16.80;;;8.77;;
81912;SDS011;71377;50.698;7.164;2024-01-15T04:06:51;14.48;;;9.18;;
81912;SDS011;71377;50.698;7.164;2024-01-15T04:09:17;14.82;;;8.35;;
81912;SDS011;71377;50.698;7.164;2024-01-15T04:11:44;14.80;;;9.32;;
81912;SDS011;71377;50.698;7.164;2024-01-15T04:14:10;17.60;;;9.13;;
81912;SDS011;71377;50.698;7.164;2024-01-15T04:16:37;16.80;;;8.40;;
81912;SDS011;71377;50.698;7.164;2024-01-15T04:19:03;13.95;;;7.50;;
81912;SDS011;71377;50.698;7.164;2024-01-15T04:21:30;16.42;;;9.55;;
81912;SDS011;71377;50.698;7.164;2024-01-15T04:23:56;14.80;;;9.30;;
81912;SDS011;71377;50.698;7.164;2024-01-15T04:26:23;15.15;;;8.88;;
81912;SDS011;71377;50.698;7.164;2024-01-15T04:28:49;16.10;;;8.93;;
81912;SDS011;71377;50.698;7.164;2024-01-15T04:31:25;15.45;;;8.65;;
81912;SDS011;71377;50.698;7.164;2024-01-15T04:33:53;14.45;;;8.60;;
81912;SDS011;71377;50.698;7.164;2024-01-15T04:36:20;14.27;;;8.30;;
81912;SDS011;71377;50.698;7.164;2024-01-15T04:38:46;14.48;;;7.28;;
81912;SDS011;71377;50.698;7.164;2024-01-15T04:41:13;14.77;;;7.90;;
81912;SDS011;71377;50.698;7.164;2024-01-15T04:43:40;15.52;;;8.65;;
81912;SDS011;71377;50.698;7.164;2024-01-15T04:46:06;17.25;;;8.80;;
81912;SDS011;71377;50.698;7.164;2024-01-15T04:48:33;13.52;;;8.65;;
81912;SDS011;71377;50.698;7.164;2024-01-15T04:51:00;14.43;;;8.32;;
81912;SDS011;71377;50.698;7.164;2024-01-15T04:53:27;14.50;;;8.23;;
81912;SDS011;71377;50.698;7.164;2024-01-15T04:55:53;13.18;;;8.30;;
81912;SDS011;71377;50.698;7.164;2024-01-15T04:58:19;13.20;;;8.07;;
81912;SDS011;71377;50.698;7.164;2024-01-15T05:00:46;15.18;;;8.60;;
81912;SDS011;71377;50.698;7.164;2024-01-15T05:03:12;12.23;;;8.43;;
81912;SDS011;71377;50.698;7.164;2024-01-15T05:05:40;11.45;;;7.80;;
81912;SDS011;71377;50.698;7.164;2024-01-15T05:08:06;10.73;;;7.07;;
81912;SDS011;71377;50.698;7.164;2024-01-15T05:10:32;12.38;;;7.50;;
81912;SDS011;71377;50.698;7.164;2024-01-15T05:12:59;11.93;;;7.50;;
81912;SDS011;71377;50.698;7.164;2024-01-15T05:15:25;13.05;;;8.05;;
81912;SDS011;71377;50.698;7.164;2024-01-15T05:17:51;12.15;;;7.47;;
81912;SDS011;71377;50.698;7.164;2024-01-15T05:20:18;12.27;;;7.45;;
81912;SDS011;71377;50.698;7.164;2024-01-15T05:22:44;11.80;;;7.13;;
81912;SDS011;71377;50.698;7.164;2024-01-15T05:25:11;12.30;;;7.88;;
81912;SDS011;71377;50.698;7.164;2024-01-15T05:27:37;14.48;;;8.65;;
81912;SDS011;71377;50.698;7.164;2024-01-15T05:30:04;11.68;;;7.38;;
81912;SDS011;71377;50.698;7.164;2024-01-15T05:32:32;13.18;;;8.10;;
81912;SDS011;71377;50.698;7.164;2024-01-15T05:34:58;12.82;;;8.02;;
81912;SDS011;71377;50.698;7.164;2024-01-15T05:37:25;13.95;;;7.90;;
81912;SDS011;71377;50.698;7.164;2024-01-15T05:39:51;11.85;;;7.65;;
81912;SDS011;71377;50.698;7.164;2024-01-15T05:42:18;12.90;;;8.95;;
81912;SDS011;71377;50.698;7.164;2024-01-15T05:44:44;14.77;;;8.85;;
81912;SDS011;71377;50.698;7.164;2024-01-15T05:47:11;12.50;;;8.40;;
81912;SDS011;71377;50.698;7.164;2024-01-15T05:49:37;13.77;;;7.68;;
81912;SDS011;71377;50.698;7.164;2024-01-15T05:52:04;14.75;;;8.48;;
81912;SDS011;71377;50.698;7.164;2024-01-15T05:54:30;12.98;;;7.80;;
81912;SDS011;71377;50.698;7.164;2024-01-15T05:56:57;14.02;;;8.10;;
81912;SDS011;71377;50.698;7.164;2024-01-15T05:59:23;13.48;;;8.35;;
81912;SDS011;71377;50.698;7.164;2024-01-15T06:01:50;11.68;;;7.43;;
81912;SDS011;71377;50.698;7.164;2024-01-15T06:04:16;14.10;;;7.93;;
81912;SDS011;71377;50.698;7.164;2024-01-15T06:06:43;11.38;;;6.85;;
81912;SDS011;71377;50.698;7.164;2024-01-15T06:09:09;14.88;;;8.23;;
81912;SDS011;71377;50.698;7.164;2024-01-15T06:11:36;13.60;;;7.38;;
81912;SDS011;71377;50.698;7.164;2024-01-15T06:14:02;12.98;;;6.80;;
81912;SDS011;71377;50.698;7.164;2024-01-15T06:16:28;15.77;;;8.45;;
81912;SDS011;71377;50.698;7.164;2024-01-15T06:18:55;12.35;;;7.50;;
81912;SDS011;71377;50.698;7.164;2024-01-15T06:21:21;15.50;;;8.45;;
81912;SDS011;71377;50.698;7.164;2024-01-15T06:23:48;13.00;;;7.13;;
81912;SDS011;71377;50.698;7.164;2024-01-15T06:26:16;13.65;;;7.57;;
81912;SDS011;71377;50.698;7.164;2024-01-15T06:28:43;16.63;;;8.73;;
81912;SDS011;71377;50.698;7.164;2024-01-15T06:31:09;11.52;;;7.20;;
81912;SDS011;71377;50.698;7.164;2024-01-15T06:33:36;12.98;;;7.45;;
81912;SDS011;71377;50.698;7.164;2024-01-15T06:36:06;11.82;;;7.47;;
81912;SDS011;71377;50.698;7.164;2024-01-15T06:38:32;12.25;;;7.40;;
81912;SDS011;71377;50.698;7.164;2024-01-15T06:41:00;19.75;;;9.57;;
81912;SDS011;71377;50.698;7.164;2024-01-15T06:43:26;30.25;;;12.20;;
81912;SDS011;71377;50.698;7.164;2024-01-15T06:45:52;12.30;;;7.97;;
81912;SDS011;71377;50.698;7.164;2024-01-15T06:48:19;14.63;;;8.88;;
81912;SDS011;71377;50.698;7.164;2024-01-15T06:50:46;14.10;;;8.77;;
81912;SDS011;71377;50.698;7.164;2024-01-15T06:53:13;12.68;;;8.05;;
81912;SDS011;71377;50.698;7.164;2024-01-15T06:55:39;15.15;;;8.25;;
81912;SDS011;71377;50.698;7.164;2024-01-15T06:58:05;15.60;;;7.95;;
81912;SDS011;71377;50.698;7.164;2024-01-15T07:00:32;13.65;;;7.32;;
81912;SDS011;71377;50.698;7.164;2024-01-15T07:02:58;16.00;;;8.60;;
81912;SDS011;71377;50.698;7.164;2024-01-15T07:05:25;18.98;;;8.35;;
81912;SDS011;71377;50.698;7.164;2024-01-15T07:07:51;16.65;;;10.02;;
81912;SDS011;71377;50.698;7.164;2024-01-15T07:10:19;15.95;;;8.95;;
81912;SDS011;71377;50.698;7.164;2024-01-15T07:12:45;14.77;;;8.90;;
81912;SDS011;71377;50.698;7.164;2024-01-15T07:15:11;17.08;;;8.40;;
81912;SDS011;71377;50.698;7.164;2024-01-15T07:17:38;13.73;;;7.97;;
81912;SDS011;71377;50.698;7.164;2024-01-15T07:20:09;17.75;;;8.00;;
81912;SDS011;71377;50.698;7.164;2024-01-15T07:22:36;12.70;;;8.10;;
81912;SDS011;71377;50.698;7.164;2024-01-15T07:25:02;14.00;;;8.75;;
81912;SDS011;71377;50.698;7.164;2024-01-15T07:27:31;16.30;;;8.15;;
81912;SDS011;71377;50.698;7.164;2024-01-15T07:29:58;16.33;;;7.85;;
81912;SDS011;71377;50.698;7.164;2024-01-15T07:32:28;14.13;;;8.30;;
81912;SDS011;71377;50.698;7.164;2024-01-15T07:34:54;15.52;;;8.75;;
81912;SDS011;71377;50.698;7.164;2024-01-15T07:37:21;13.65;;;8.13;;
81912;SDS011;71377;50.698;7.164;2024-01-15T07:39:49;13.75;;;7.68;;
81912;SDS011;71377;50.698;7.164;2024-01-15T07:42:15;15.30;;;8.05;;
81912;SDS011;71377;50.698;7.164;2024-01-15T07:44:42;10.20;;;6.85;;
81912;SDS011;71377;50.698;7.164;2024-01-15T07:47:08;12.35;;;7.43;;
81912;SDS011;71377;50.698;7.164;2024-01-15T07:49:35;15.43;;;7.95;;
81912;SDS011;71377;50.698;7.164;2024-01-15T07:52:02;10.20;;;6.82;;
81912;SDS011;71377;50.698;7.164;2024-01-15T07:54:28;15.82;;;7.90;;
81912;SDS011;71377;50.698;7.164;2024-01-15T07:56:56;12.93;;;8.07;;
81912;SDS011;71377;50.698;7.164;2024-01-15T07:59:24;13.35;;;7.25;;
81912;SDS011;71377;50.698;7.164;2024-01-15T08:01:51;12.57;;;6.68;;
81912;SDS011;71377;50.698;7.164;2024-01-15T08:04:18;11.23;;;7.65;;
81912;SDS011;71377;50.698;7.164;2024-01-15T08:06:46;12.80;;;7.82;;
81912;SDS011;71377;50.698;7.164;2024-01-15T08:09:13;11.93;;;7.57;;
81912;SDS011;71377;50.698;7.164;2024-01-15T08:11:40;9.75;;;6.40;;
81912;SDS011;71377;50.698;7.164;2024-01-15T08:14:10;13.38;;;7.55;;
81912;SDS011;71377;50.698;7.164;2024-01-15T08:16:37;11.50;;;7.05;;
81912;SDS011;71377;50.698;7.164;2024-01-15T08:19:04;11.68;;;7.55;;
81912;SDS011;71377;50.698;7.164;2024-01-15T08:21:30;10.88;;;6.70;;
81912;SDS011;71377;50.698;7.164;2024-01-15T08:23:58;12.68;;;7.78;;
81912;SDS011;71377;50.698;7.164;2024-01-15T08:26:26;10.68;;;7.05;;
81912;SDS011;71377;50.698;7.164;2024-01-15T08:28:52;17.70;;;7.60;;
81912;SDS011;71377;50.698;7.164;2024-01-15T08:31:19;14.32;;;6.45;;
81912;SDS011;71377;50.698;7.164;2024-01-15T08:33:47;9.73;;;6.70;;
81912;SDS011;71377;50.698;7.164;2024-01-15T08:36:13;14.90;;;6.68;;
81912;SDS011;71377;50.698;7.164;2024-01-15T08:38:41;9.73;;;6.03;;
81912;SDS011;71377;50.698;7.164;2024-01-15T08:41:07;11.88;;;7.25;;
81912;SDS011;71377;50.698;7.164;2024-01-15T08:43:34;16.05;;;6.88;;
81912;SDS011;71377;50.698;7.164;2024-01-15T08:46:01;10.60;;;6.07;;
81912;SDS011;71377;50.698;7.164;2024-01-15T08:48:28;12.65;;;6.25;;
81912;SDS011;71377;50.698;7.164;2024-01-15T08:50:55;10.68;;;6.15;;
81912;SDS011;71377;50.698;7.164;2024-01-15T08:53:21;9.45;;;6.53;;
81912;SDS011;71377;50.698;7.164;2024-01-15T08:55:48;10.52;;;6.30;;
81912;SDS011;71377;50.698;7.164;2024-01-15T08:58:14;11.95;;;6.72;;
81912;SDS011;71377;50.698;7.164;2024-01-15T09:00:41;13.48;;;6.85;;
81912;SDS011;71377;50.698;7.164;2024-01-15T09:03:07;16.10;;;6.45;;
81912;SDS011;71377;50.698;7.164;2024-01-15T09:05:35;13.52;;;6.57;;
81912;SDS011;71377;50.698;7.164;2024-01-15T09:08:03;12.10;;;6.65;;
81912;SDS011;71377;50.698;7.164;2024-01-15T09:10:30;13.35;;;6.75;;
81912;SDS011;71377;50.698;7.164;2024-01-15T09:12:56;14.13;;;6.47;;
81912;SDS011;71377;50.698;7.164;2024-01-15T09:15:22;14.27;;;6.45;;
81912;SDS011;71377;50.698;7.164;2024-01-15T09:17:49;16.60;;;9.20;;
81912;SDS011;71377;50.698;7.164;2024-01-15T09:20:16;11.07;;;6.40;;
81912;SDS011;71377;50.698;7.164;2024-01-15T09:22:43;14.70;;;6.32;;
81912;SDS011;71377;50.698;7.164;2024-01-15T09:25:09;11.05;;;6.07;;
81912;SDS011;71377;50.698;7.164;2024-01-15T09:27:36;10.43;;;6.35;;
81912;SDS011;71377;50.698;7.164;2024-01-15T09:30:03;13.30;;;6.53;;
81912;SDS011;71377;50.698;7.164;2024-01-15T09:32:31;11.93;;;6.35;;
81912;SDS011;71377;50.698;7.164;2024-01-15T09:34:59;11.60;;;5.97;;
81912;SDS011;71377;50.698;7.164;2024-01-15T09:37:25;13.77;;;6.38;;
81912;SDS011;71377;50.698;7.164;2024-01-15T09:40:11;9.75;;;5.35;;
81912;SDS011;71377;50.698;7.164;2024-01-15T09:42:41;11.45;;;5.93;;
81912;SDS011;71377;50.698;7.164;2024-01-15T09:45:08;11.00;;;6.30;;
81912;SDS011;71377;50.698;7.164;2024-01-15T09:47:36;10.13;;;5.47;;
81912;SDS011;71377;50.698;7.164;2024-01-15T09:50:07;9.68;;;5.13;;
81912;SDS011;71377;50.698;7.164;2024-01-15T09:52:35;16.60;;;6.00;;
81912;SDS011;71377;50.698;7.164;2024-01-15T09:55:02;9.30;;;5.50;;
81912;SDS011;71377;50.698;7.164;2024-01-15T09:57:33;9.43;;;5.53;;
81912;SDS011;71377;50.698;7.164;2024-01-15T10:00:00;8.73;;;5.13;;
81912;SDS011;71377;50.698;7.164;2024-01-15T10:02:30;9.98;;;5.90;;
81912;SDS011;71377;50.698;7.164;2024-01-15T10:04:57;10.13;;;5.80;;
81912;SDS011;71377;50.698;7.164;2024-01-15T10:07:24;16.35;;;5.78;;
81912;SDS011;71377;50.698;7.164;2024-01-15T10:09:52;9.88;;;5.10;;
81912;SDS011;71377;50.698;7.164;2024-01-15T10:12:18;10.50;;;5.28;;
81912;SDS011;71377;50.698;7.164;2024-01-15T10:14:47;9.25;;;5.03;;
81912;SDS011;71377;50.698;7.164;2024-01-15T10:17:15;8.90;;;5.50;;
81912;SDS011;71377;50.698;7.164;2024-01-15T10:19:41;10.95;;;6.00;;
81912;SDS011;71377;50.698;7.164;2024-01-15T10:22:14;5.85;;;4.32;;
81912;SDS011;71377;50.698;7.164;2024-01-15T10:24:41;6.60;;;4.22;;
81912;SDS011;71377;50.698;7.164;2024-01-15T10:27:08;7.95;;;5.47;;
81912;SDS011;71377;50.698;7.164;2024-01-15T10:29:36;10.18;;;5.53;;
81912;SDS011;71377;50.698;7.164;2024-01-15T10:32:06;7.78;;;5.47;;
81912;SDS011;71377;50.698;7.164;2024-01-15T10:34:33;10.02;;;5.78;;
81912;SDS011;71377;50.698;7.164;2024-01-15T10:37:01;8.13;;;5.93;;
81912;SDS011;71377;50.698;7.164;2024-01-15T10:39:29;7.75;;;5.45;;
81912;SDS011;71377;50.698;7.164;2024-01-15T10:41:56;8.13;;;5.72;;
81912;SDS011;71377;50.698;7.164;2024-01-15T10:44:23;9.38;;;5.82;;
81912;SDS011;71377;50.698;7.164;2024-01-15T10:46:53;11.77;;;6.07;;
81912;SDS011;71377;50.698;7.164;2024-01-15T10:49:21;7.15;;;5.03;;
81912;SDS011;71377;50.698;7.164;2024-01-15T10:51:53;7.93;;;6.07;;
81912;SDS011;71377;50.698;7.164;2024-01-15T10:54:20;8.13;;;6.10;;
81912;SDS011;71377;50.698;7.164;2024-01-15T10:56:49;9.55;;;6.68;;
81912;SDS011;71377;50.698;7.164;2024-01-15T10:59:18;17.70;;;8.18;;
81912;SDS011;71377;50.698;7.164;2024-01-15T11:01:47;8.88;;;6.20;;
81912;SDS011;71377;50.698;7.164;2024-01-15T11:04:15;9.13;;;6.43;;
81912;SDS011;71377;50.698;7.164;2024-01-15T11:06:44;9.00;;;5.93;;
81912;SDS011;71377;50.698;7.164;2024-01-15T11:09:12;6.50;;;4.38;;
81912;SDS011;71377;50.698;7.164;2024-01-15T11:11:40;7.82;;;5.50;;
81912;SDS011;71377;50.698;7.164;2024-01-15T11:14:09;7.40;;;5.00;;
81912;SDS011;71377;50.698;7.164;2024-01-15T11:16:55;7.22;;;4.65;;
81912;SDS011;71377;50.698;7.164;2024-01-15T11:19:22;6.53;;;3.97;;
81912;SDS011;71377;50.698;7.164;2024-01-15T11:21:49;5.85;;;5.07;;
81912;SDS011;71377;50.698;7.164;2024-01-15T11:24:35;7.78;;;5.22;;
81912;SDS011;71377;50.698;7.164;2024-01-15T11:27:03;5.75;;;4.28;;
81912;SDS011;71377;50.698;7.164;2024-01-15T11:29:31;7.88;;;5.22;;
81912;SDS011;71377;50.698;7.164;2024-01-15T11:32:08;7.78;;;5.68;;
81912;SDS011;71377;50.698;7.164;2024-01-15T11:37:56;8.02;;;5.88;;
81912;SDS011;71377;50.698;7.164;2024-01-15T11:40:20;8.02;;;4.82;;
81912;SDS011;71377;50.698;7.164;2024-01-15T11:42:48;6.35;;;5.18;;
81912;SDS011;71377;50.698;7.164;2024-01-15T11:45:19;7.80;;;6.32;;
81912;SDS011;71377;50.698;7.164;2024-01-15T11:47:53;11.88;;;6.35;;
81912;SDS011;71377;50.698;7.164;2024-01-15T11:53:13;7.20;;;4.93;;
81912;SDS011;71377;50.698;7.164;2024-01-15T11:56:01;8.18;;;5.65;;
81912;SDS011;71377;50.698;7.164;2024-01-15T11:58:29;7.50;;;5.50;;
81912;SDS011;71377;50.698;7.164;2024-01-15T12:00:55;12.60;;;6.78;;
81912;SDS011;71377;50.698;7.164;2024-01-15T12:03:24;8.50;;;6.15;;
81912;SDS011;71377;50.698;7.164;2024-01-15T12:05:54;11.85;;;6.07;;
81912;SDS011;71377;50.698;7.164;2024-01-15T12:08:24;7.88;;;5.65;;
81912;SDS011;71377;50.698;7.164;2024-01-15T12:10:51;7.95;;;5.05;;
81912;SDS011;71377;50.698;7.164;2024-01-15T12:13:18;9.50;;;6.22;;
81912;SDS011;71377;50.698;7.164;2024-01-15T12:15:46;9.75;;;5.82;;
81912;SDS011;71377;50.698;7.164;2024-01-15T12:18:15;9.23;;;6.25;;
81912;SDS011;71377;50.698;7.164;2024-01-15T12:20:44;12.05;;;7.47;;
81912;SDS011;71377;50.698;7.164;2024-01-15T12:23:13;11.60;;;5.80;;
81912;SDS011;71377;50.698;7.164;2024-01-15T12:25:40;12.45;;;6.53;;
81912;SDS011;71377;50.698;7.164;2024-01-15T12:28:07;10.05;;;5.68;;
81912;SDS011;71377;50.698;7.164;2024-01-15T12:30:34;9.98;;;5.18;;
81912;SDS011;71377;50.698;7.164;2024-01-15T12:33:02;9.00;;;5.85;;
81912;SDS011;71377;50.698;7.164;2024-01-15T12:35:33;9.25;;;6.20;;
81912;SDS011;71377;50.698;7.164;2024-01-15T12:38:00;9.75;;;5.95;;
81912;SDS011;71377;50.698;7.164;2024-01-15T12:40:32;12.68;;;6.00;;
81912;SDS011;71377;50.698;7.164;2024-01-15T12:43:01;11.32;;;6.10;;
81912;SDS011;71377;50.698;7.164;2024-01-15T12:45:28;12.35;;;5.47;;
81912;SDS011;71377;50.698;7.164;2024-01-15T12:47:56;9.55;;;4.55;;
81912;SDS011;71377;50.698;7.164;2024-01-15T12:50:24;8.48;;;4.93;;
81912;SDS011;71377;50.698;7.164;2024-01-15T12:52:52;18.08;;;7.82;;
81912;SDS011;71377;50.698;7.164;2024-01-15T12:55:18;10.65;;;4.80;;
81912;SDS011;71377;50.698;7.164;2024-01-15T12:57:45;14.70;;;5.05;;
81912;SDS011;71377;50.698;7.164;2024-01-15T13:00:12;14.43;;;4.72;;
81912;SDS011;71377;50.698;7.164;2024-01-15T13:02:41;10.85;;;4.53;;
81912;SDS011;71377;50.698;7.164;2024-01-15T13:05:09;8.07;;;4.63;;
81912;SDS011;71377;50.698;7.164;2024-01-15T13:07:41;10.02;;;4.95;;
81912;SDS011;71377;50.698;7.164;2024-01-15T13:10:08;8.82;;;4.28;;
81912;SDS011;71377;50.698;7.164;2024-01-15T13:12:36;11.00;;;4.85;;
81912;SDS011;71377;50.698;7.164;2024-01-15T13:15:03;6.85;;;3.95;;
81912;SDS011;71377;50.698;7.164;2024-01-15T13:17:30;7.47;;;3.80;;
81912;SDS011;71377;50.698;7.164;2024-01-15T13:19:57;9.85;;;5.32;;
81912;SDS011;71377;50.698;7.164;2024-01-15T13:22:24;6.60;;;4.10;;
81912;SDS011;71377;50.698;7.164;2024-01-15T13:24:56;10.52;;;3.90;;
81912;SDS011;71377;50.698;7.164;2024-01-15T13:27:22;7.75;;;4.13;;
81912;SDS011;71377;50.698;7.164;2024-01-15T13:29:49;9.30;;;3.55;;
81912;SDS011;71377;50.698;7.164;2024-01-15T13:32:17;8.68;;;3.40;;
81912;SDS011;71377;50.698;7.164;2024-01-15T13:34:52;7.72;;;3.63;;
81912;SDS011;71377;50.698;7.164;2024-01-15T13:37:20;9.35;;;3.95;;
81912;SDS011;71377;50.698;7.164;2024-01-15T13:39:46;9.43;;;3.65;;
81912;SDS011;71377;50.698;7.164;2024-01-15T13:42:13;6.82;;;3.65;;
81912;SDS011;71377;50.698;7.164;2024-01-15T13:44:40;10.35;;;3.85;;
81912;SDS011;71377;50.698;7.164;2024-01-15T13:47:07;6.80;;;3.53;;
81912;SDS011;71377;50.698;7.164;2024-01-15T13:49:33;9.48;;;3.15;;
81912;SDS011;71377;50.698;7.164;2024-01-15T13:52:00;4.90;;;3.40;;
81912;SDS011;71377;50.698;7.164;2024-01-15T13:54:30;8.63;;;3.33;;
81912;SDS011;71377;50.698;7.164;2024-01-15T13:57:14;5.45;;;3.28;;
81912;SDS011;71377;50.698;7.164;2024-01-15T13:59:40;8.85;;;2.97;;
81912;SDS011;71377;50.698;7.164;2024-01-15T14:02:08;5.60;;;2.75;;
81912;SDS011;71377;50.698;7.164;2024-01-15T14:04:36;4.65;;;3.50;;
81912;SDS011;71377;50.698;7.164;2024-01-15T14:07:03;9.77;;;3.55;;
81912;SDS011;71377;50.698;7.164;2024-01-15T14:09:30;7.53;;;3.28;;
81912;SDS011;71377;50.698;7.164;2024-01-15T14:11:58;7.45;;;3.78;;
81912;SDS011;71377;50.698;7.164;2024-01-15T14:14:24;4.65;;;3.25;;
81912;SDS011;71377;50.698;7.164;2024-01-15T14:16:51;7.00;;;3.38;;
81912;SDS011;71377;50.698;7.164;2024-01-15T14:19:17;7.78;;;3.47;;
81912;SDS011;71377;50.698;7.164;2024-01-15T14:21:46;6.72;;;2.95;;
81912;SDS011;71377;50.698;7.164;2024-01-15T14:24:13;5.20;;;3.25;;
81912;SDS011;71377;50.698;7.164;2024-01-15T14:26:39;7.13;;;4.40;;
81912;SDS011;71377;50.698;7.164;2024-01-15T14:29:05;4.68;;;3.40;;
81912;SDS011;71377;50.698;7.164;2024-01-15T14:31:32;6.10;;;3.38;;
81912;SDS011;71377;50.698;7.164;2024-01-15T14:34:00;6.50;;;3.45;;
81912;SDS011;71377;50.698;7.164;2024-01-15T14:36:29;3.33;;;3.03;;
81912;SDS011;71377;50.698;7.164;2024-01-15T14:38:56;3.67;;;3.25;;
81912;SDS011;71377;50.698;7.164;2024-01-15T14:41:22;4.53;;;3.50;;
81912;SDS011;71377;50.698;7.164;2024-01-15T14:43:49;4.82;;;3.28;;
81912;SDS011;71377;50.698;7.164;2024-01-15T14:46:15;6.40;;;3.30;;